createdAt,value
2022-11-02T00:00:50.849Z,99.99
2022-11-02T00:01:50.887Z,99.99
2022-11-02T00:02:50.914Z,99.99
2022-11-02T00:03:50.778Z,99.99
2022-11-02T00:04:50.758Z,99.99
2022-11-02T00:05:50.729Z,99.99
2022-11-02T00:06:50.708Z,99.99
2022-11-02T00:07:50.686Z,99.99
2022-11-02T00:08:50.666Z,99.99
2022-11-02T00:09:50.658Z,99.99
2022-11-02T00:10:50.613Z,99.99
2022-11-02T00:11:50.593Z,99.99
2022-11-02T00:12:50.571Z,99.99
2022-11-02T00:13:50.545Z,99.99
2022-11-02T00:14:50.521Z,99.99
2022-11-02T00:15:50.496Z,99.99
2022-11-02T00:16:50.481Z,99.99
2022-11-02T00:17:50.499Z,99.99
2022-11-02T00:18:50.438Z,99.99
2022-11-02T00:19:50.412Z,99.99
2022-11-02T00:20:50.386Z,99.99
2022-11-02T00:21:50.358Z,99.99
2022-11-02T00:22:50.341Z,99.99
2022-11-02T00:23:50.318Z,99.99
2022-11-02T00:24:50.291Z,99.99
2022-11-02T00:25:50.357Z,99.57
2022-11-02T00:26:50.245Z,99.76
2022-11-02T00:27:50.229Z,99.76
2022-11-02T00:28:50.198Z,99.76
2022-11-02T00:29:50.178Z,99.57
2022-11-02T00:30:50.150Z,99.66
2022-11-02T00:31:50.129Z,99.57
2022-11-02T00:32:50.105Z,99.48
2022-11-02T00:33:50.082Z,99.99
2022-11-02T00:34:50.061Z,99.99
2022-11-02T00:35:50.044Z,99.95
2022-11-02T00:36:55.217Z,99.95
2022-11-02T00:37:49.991Z,99.48
2022-11-02T00:38:49.968Z,99.76
2022-11-02T00:39:49.947Z,99.76
2022-11-02T00:40:49.922Z,99.95
2022-11-02T00:41:49.929Z,98.80
2022-11-02T00:42:49.877Z,99.66
2022-11-02T00:43:49.850Z,99.76
2022-11-02T00:44:49.831Z,99.19
2022-11-02T00:45:49.808Z,99.19
2022-11-02T00:46:49.783Z,99.76
2022-11-02T00:47:49.760Z,99.85
2022-11-02T00:48:49.746Z,99.57
2022-11-02T00:49:49.717Z,99.76
2022-11-02T00:50:49.689Z,99.99
2022-11-02T00:51:49.674Z,99.99
2022-11-02T00:52:49.642Z,99.99
2022-11-02T00:53:49.626Z,99.99
2022-11-02T00:54:49.602Z,99.99
2022-11-02T00:55:49.574Z,99.99
2022-11-02T00:56:49.621Z,99.99
2022-11-02T00:57:49.550Z,99.99
2022-11-02T00:58:49.509Z,99.99
2022-11-02T00:59:49.487Z,99.99
2022-11-02T01:00:49.460Z,99.99
2022-11-02T01:01:49.572Z,99.99
2022-11-02T01:02:49.598Z,99.99
2022-11-02T01:03:49.396Z,99.99
2022-11-02T01:04:49.364Z,99.99
2022-11-02T01:05:49.343Z,99.99
2022-11-02T01:06:49.319Z,99.99
2022-11-02T01:07:49.302Z,99.99
2022-11-02T01:08:49.279Z,99.99
2022-11-02T01:09:49.252Z,99.99
2022-11-02T01:10:49.230Z,99.99
2022-11-02T01:11:49.206Z,99.99
2022-11-02T01:12:49.181Z,99.99
2022-11-02T01:13:49.179Z,99.99
2022-11-02T01:14:49.133Z,99.99
2022-11-02T01:15:49.118Z,99.99
2022-11-02T01:16:49.092Z,99.99
2022-11-02T01:17:49.071Z,99.99
2022-11-02T01:18:49.047Z,99.99
2022-11-02T01:19:49.023Z,99.99
2022-11-02T01:20:48.998Z,99.99
2022-11-02T01:21:48.979Z,99.99
2022-11-02T01:22:48.955Z,99.99
2022-11-02T01:23:48.930Z,99.99
2022-11-02T01:24:48.914Z,99.99
2022-11-02T01:25:48.884Z,99.99
2022-11-02T01:26:48.862Z,99.99
2022-11-02T01:27:48.840Z,99.99
2022-11-02T01:28:48.818Z,99.99
2022-11-02T01:29:48.813Z,99.99
2022-11-02T01:30:48.768Z,99.99
2022-11-02T01:31:48.742Z,99.99
2022-11-02T01:32:48.723Z,99.99
2022-11-02T01:33:48.698Z,99.99
2022-11-02T01:34:48.673Z,99.99
2022-11-02T01:35:48.663Z,99.99
2022-11-02T01:36:48.629Z,99.99
2022-11-02T01:37:48.607Z,99.99
2022-11-02T01:38:48.583Z,99.99
2022-11-02T01:39:48.559Z,99.99
2022-11-02T01:40:48.539Z,99.99
2022-11-02T01:41:48.518Z,99.99
2022-11-02T01:42:48.488Z,99.99
2022-11-02T01:43:48.478Z,99.99
2022-11-02T01:44:48.450Z,99.99
2022-11-02T01:45:48.441Z,99.99
2022-11-02T01:46:48.396Z,99.99
2022-11-02T01:47:48.375Z,99.99
2022-11-02T01:48:48.354Z,99.99
2022-11-02T01:49:48.330Z,99.99
2022-11-02T01:50:48.307Z,99.99
2022-11-02T01:51:48.287Z,99.99
2022-11-02T01:52:48.261Z,99.99
2022-11-02T01:53:48.237Z,99.99
2022-11-02T01:54:48.213Z,99.99
2022-11-02T01:55:48.204Z,99.99
2022-11-02T01:56:48.373Z,99.99
2022-11-02T01:57:48.148Z,99.99
2022-11-02T01:58:48.122Z,99.99
2022-11-02T01:59:48.097Z,99.99
2022-11-02T02:00:48.076Z,99.99
2022-11-02T02:01:48.273Z,99.99
2022-11-02T02:02:48.116Z,99.99
2022-11-02T02:03:48.009Z,99.99
2022-11-02T02:04:47.982Z,99.99
2022-11-02T02:05:47.959Z,99.99
2022-11-02T02:06:47.936Z,99.99
2022-11-02T02:07:47.916Z,99.99
2022-11-02T02:08:47.890Z,99.99
2022-11-02T02:09:50.414Z,99.99
2022-11-02T02:10:47.847Z,99.99
2022-11-02T02:11:47.822Z,99.99
2022-11-02T02:12:47.801Z,99.99
2022-11-02T02:13:47.776Z,99.99
2022-11-02T02:14:47.757Z,99.99
2022-11-02T02:15:47.732Z,99.99
2022-11-02T02:17:47.702Z,99.99
2022-11-02T02:18:47.663Z,99.99
2022-11-02T02:19:47.642Z,99.99
2022-11-02T02:20:47.616Z,99.99
2022-11-02T02:21:47.598Z,99.99
2022-11-02T02:22:47.564Z,99.99
2022-11-02T02:23:47.546Z,99.99
2022-11-02T02:24:47.523Z,99.99
2022-11-02T02:25:47.496Z,99.99
2022-11-02T02:26:47.474Z,99.99
2022-11-02T02:27:47.451Z,99.99
2022-11-02T02:28:47.427Z,99.99
2022-11-02T02:29:47.405Z,99.99
2022-11-02T02:30:47.389Z,99.99
2022-11-02T02:31:47.358Z,99.99
2022-11-02T02:32:47.335Z,99.99
2022-11-02T02:33:47.338Z,99.99
2022-11-02T02:34:47.286Z,99.99
2022-11-02T02:35:47.265Z,99.99
2022-11-02T02:37:47.220Z,99.99
2022-11-02T02:38:47.198Z,99.99
2022-11-02T02:39:47.177Z,99.99
2022-11-02T02:40:47.151Z,99.99
2022-11-02T02:41:47.133Z,99.99
2022-11-02T02:42:47.107Z,99.99
2022-11-02T02:43:47.087Z,99.99
2022-11-02T02:44:47.064Z,99.99
2022-11-02T02:45:47.042Z,99.99
2022-11-02T02:46:48.290Z,99.99
2022-11-02T02:47:46.990Z,99.99
2022-11-02T02:48:46.964Z,99.99
2022-11-02T02:49:46.971Z,99.99
2022-11-02T02:50:46.916Z,99.99
2022-11-02T02:51:46.896Z,99.99
2022-11-02T02:52:46.872Z,99.99
2022-11-02T02:53:46.851Z,99.99
2022-11-02T02:54:46.830Z,99.99
2022-11-02T02:55:46.806Z,99.99
2022-11-02T02:57:46.777Z,99.99
2022-11-02T02:58:46.769Z,99.99
2022-11-02T02:59:46.716Z,99.99
2022-11-02T03:00:46.688Z,99.99
2022-11-02T03:01:46.878Z,99.99
2022-11-02T03:02:46.670Z,99.99
2022-11-02T03:03:46.618Z,99.99
2022-11-02T03:04:46.600Z,99.99
2022-11-02T03:05:46.594Z,99.99
2022-11-02T03:06:46.549Z,99.99
2022-11-02T03:07:46.530Z,99.99
2022-11-02T03:08:46.501Z,99.99
2022-11-02T03:09:46.479Z,99.99
2022-11-02T03:10:46.459Z,99.99
2022-11-02T03:11:46.440Z,99.99
2022-11-02T03:12:46.412Z,99.99
2022-11-02T03:13:46.385Z,99.99
2022-11-02T03:14:46.363Z,99.99
2022-11-02T03:15:46.339Z,99.99
2022-11-02T03:16:46.383Z,99.99
2022-11-02T03:17:46.295Z,99.99
2022-11-02T03:18:46.270Z,99.99
2022-11-02T03:19:46.248Z,99.99
2022-11-02T03:20:46.222Z,99.99
2022-11-02T03:21:46.226Z,99.99
2022-11-02T03:22:46.177Z,99.99
2022-11-02T03:23:46.157Z,99.99
2022-11-02T03:24:46.135Z,99.99
2022-11-02T03:25:46.112Z,99.99
2022-11-02T03:26:46.084Z,99.99
2022-11-02T03:27:46.066Z,99.99
2022-11-02T03:28:46.035Z,99.99
2022-11-02T03:29:46.014Z,99.99
2022-11-02T03:30:45.991Z,99.99
2022-11-02T03:31:45.983Z,99.99
2022-11-02T03:32:45.945Z,99.99
2022-11-02T03:33:45.920Z,99.99
2022-11-02T03:34:45.900Z,99.99
2022-11-02T03:35:45.873Z,99.99
2022-11-02T03:36:45.849Z,99.99
2022-11-02T03:37:45.853Z,99.99
2022-11-02T03:38:45.806Z,99.99
2022-11-02T03:39:45.783Z,99.99
2022-11-02T03:40:45.760Z,99.99
2022-11-02T03:41:45.736Z,99.99
2022-11-02T03:42:45.719Z,99.99
2022-11-02T03:43:45.696Z,99.99
2022-11-02T03:44:45.662Z,99.99
2022-11-02T03:45:45.641Z,99.99
2022-11-02T03:46:45.625Z,99.99
2022-11-02T03:47:45.604Z,99.99
2022-11-02T03:48:45.576Z,99.99
2022-11-02T03:49:45.550Z,99.99
2022-11-02T03:50:45.524Z,99.99
2022-11-02T03:51:45.511Z,99.99
2022-11-02T03:52:45.481Z,99.99
2022-11-02T03:53:45.475Z,99.99
2022-11-02T03:54:45.432Z,99.99
2022-11-02T03:55:45.409Z,99.99
2022-11-02T03:56:45.386Z,99.99
2022-11-02T03:57:45.363Z,99.99
2022-11-02T03:58:45.344Z,99.99
2022-11-02T03:59:45.315Z,99.99
2022-11-02T04:00:45.296Z,99.99
2022-11-02T04:01:45.369Z,99.99
2022-11-02T04:02:45.328Z,99.99
2022-11-02T04:03:45.230Z,99.99
2022-11-02T04:04:45.200Z,99.99
2022-11-02T04:05:45.188Z,99.99
2022-11-02T04:06:45.153Z,99.99
2022-11-02T04:07:49.377Z,99.99
2022-11-02T04:08:45.107Z,99.99
2022-11-02T04:09:45.104Z,99.99
2022-11-02T04:10:45.067Z,99.99
2022-11-02T04:11:45.040Z,99.99
2022-11-02T04:12:45.015Z,99.99
2022-11-02T04:13:44.995Z,99.99
2022-11-02T04:14:44.967Z,99.99
2022-11-02T04:15:44.945Z,99.99
2022-11-02T04:16:44.921Z,99.99
2022-11-02T04:17:44.902Z,99.99
2022-11-02T04:18:44.877Z,99.99
2022-11-02T04:19:48.689Z,99.99
2022-11-02T04:20:44.826Z,99.99
2022-11-02T04:21:44.806Z,99.99
2022-11-02T04:22:44.782Z,99.99
2022-11-02T04:23:44.758Z,99.99
2022-11-02T04:24:44.737Z,99.99
2022-11-02T04:25:44.731Z,99.99
2022-11-02T04:26:44.690Z,99.99
2022-11-02T04:27:44.673Z,99.99
2022-11-02T04:28:44.645Z,99.99
2022-11-02T04:29:44.625Z,99.99
2022-11-02T04:30:44.601Z,99.99
2022-11-02T04:31:44.577Z,99.99
2022-11-02T04:32:44.552Z,99.99
2022-11-02T04:33:44.532Z,99.99
2022-11-02T04:34:44.511Z,99.99
2022-11-02T04:35:44.486Z,99.99
2022-11-02T04:36:44.458Z,99.99
2022-11-02T04:37:44.437Z,99.99
2022-11-02T04:38:44.412Z,99.99
2022-11-02T04:39:44.389Z,99.99
2022-11-02T04:40:44.365Z,99.99
2022-11-02T04:41:44.392Z,99.99
2022-11-02T04:42:44.326Z,99.99
2022-11-02T04:43:44.300Z,99.99
2022-11-02T04:44:44.271Z,99.99
2022-11-02T04:45:44.249Z,99.99
2022-11-02T04:46:44.239Z,99.99
2022-11-02T04:47:44.224Z,99.99
2022-11-02T04:48:44.202Z,99.99
2022-11-02T04:49:44.164Z,99.99
2022-11-02T04:50:44.134Z,99.99
2022-11-02T04:51:47.128Z,99.99
2022-11-02T04:52:44.095Z,99.99
2022-11-02T04:53:44.064Z,99.99
2022-11-02T04:54:44.046Z,99.99
2022-11-02T04:55:44.020Z,99.99
2022-11-02T04:56:43.992Z,99.99
2022-11-02T04:57:43.992Z,99.99
2022-11-02T04:58:43.946Z,99.99
2022-11-02T04:59:43.924Z,99.99
2022-11-02T05:00:43.906Z,99.99
2022-11-02T05:01:44.000Z,99.99
2022-11-02T05:02:43.957Z,99.99
2022-11-02T05:03:43.830Z,99.99
2022-11-02T05:04:43.807Z,99.99
2022-11-02T05:05:43.787Z,99.99
2022-11-02T05:06:43.765Z,99.99
2022-11-02T05:07:43.742Z,99.99
2022-11-02T05:08:43.719Z,99.99
2022-11-02T05:09:43.700Z,99.99
2022-11-02T05:10:43.673Z,99.99
2022-11-02T05:11:43.644Z,99.99
2022-11-02T05:12:43.624Z,99.99
2022-11-02T05:13:43.633Z,99.99
2022-11-02T05:14:43.575Z,99.99
2022-11-02T05:15:43.558Z,99.99
2022-11-02T05:16:43.534Z,99.99
2022-11-02T05:17:43.505Z,99.99
2022-11-02T05:18:43.488Z,99.99
2022-11-02T05:19:43.460Z,99.99
2022-11-02T05:20:43.440Z,99.99
2022-11-02T05:21:43.418Z,99.99
2022-11-02T05:22:43.388Z,99.99
2022-11-02T05:23:43.368Z,99.99
2022-11-02T05:24:43.345Z,99.99
2022-11-02T05:25:43.317Z,99.99
2022-11-02T05:26:43.297Z,99.99
2022-11-02T05:27:43.271Z,99.99
2022-11-02T05:28:43.253Z,99.99
2022-11-02T05:29:43.252Z,99.99
2022-11-02T05:30:43.199Z,99.99
2022-11-02T05:31:43.182Z,99.99
2022-11-02T05:32:43.157Z,99.99
2022-11-02T05:33:43.133Z,99.99
2022-11-02T05:34:43.116Z,99.99
2022-11-02T05:35:43.086Z,99.99
2022-11-02T05:36:43.062Z,99.99
2022-11-02T05:37:43.041Z,99.99
2022-11-02T05:38:43.019Z,99.99
2022-11-02T05:39:45.122Z,99.99
2022-11-02T05:40:42.965Z,99.99
2022-11-02T05:41:42.942Z,99.99
2022-11-02T05:42:42.923Z,99.99
2022-11-02T05:43:42.901Z,99.99
2022-11-02T05:44:42.875Z,99.99
2022-11-02T05:45:42.871Z,99.99
2022-11-02T05:46:42.831Z,99.99
2022-11-02T05:47:42.803Z,99.99
2022-11-02T05:48:42.788Z,99.99
2022-11-02T05:49:42.756Z,99.99
2022-11-02T05:50:42.731Z,99.99
2022-11-02T05:51:42.715Z,99.99
2022-11-02T05:52:42.685Z,99.99
2022-11-02T05:53:42.669Z,99.99
2022-11-02T05:54:42.645Z,99.99
2022-11-02T05:55:42.627Z,99.99
2022-11-02T05:56:42.595Z,99.99
2022-11-02T05:57:42.578Z,99.99
2022-11-02T05:58:42.624Z,99.99
2022-11-02T05:59:43.938Z,99.99
2022-11-02T06:00:42.507Z,99.99
2022-11-02T06:01:42.564Z,99.99
2022-11-02T06:02:42.459Z,99.99
2022-11-02T06:03:42.429Z,99.99
2022-11-02T06:04:42.407Z,99.99
2022-11-02T06:05:42.444Z,99.99
2022-11-02T06:06:42.359Z,99.99
2022-11-02T06:07:42.335Z,99.99
2022-11-02T06:08:42.319Z,99.99
2022-11-02T06:09:42.289Z,99.99
2022-11-02T06:10:42.264Z,99.99
2022-11-02T06:11:42.244Z,99.99
2022-11-02T06:12:42.233Z,99.99
2022-11-02T06:13:42.201Z,99.99
2022-11-02T06:14:42.180Z,99.99
2022-11-02T06:15:42.155Z,99.99
2022-11-02T06:16:42.128Z,99.99
2022-11-02T06:17:42.123Z,99.99
2022-11-02T06:18:42.081Z,99.99
2022-11-02T06:19:42.056Z,99.99
2022-11-02T06:20:42.035Z,99.99
2022-11-02T06:21:44.466Z,99.99
2022-11-02T06:22:41.984Z,99.99
2022-11-02T06:23:41.964Z,99.99
2022-11-02T06:24:41.942Z,99.99
2022-11-02T06:25:41.916Z,99.99
2022-11-02T06:26:41.887Z,99.99
2022-11-02T06:27:45.832Z,99.99
2022-11-02T06:28:41.843Z,99.99
2022-11-02T06:29:41.821Z,99.99
2022-11-02T06:30:41.795Z,99.99
2022-11-02T06:31:41.773Z,99.99
2022-11-02T06:32:41.748Z,99.99
2022-11-02T06:33:41.750Z,99.99
2022-11-02T06:34:41.710Z,99.99
2022-11-02T06:35:41.680Z,99.99
2022-11-02T06:36:41.657Z,99.99
2022-11-02T06:37:41.634Z,99.99
2022-11-02T06:38:41.611Z,99.99
2022-11-02T06:39:41.585Z,99.99
2022-11-02T06:40:41.560Z,99.99
2022-11-02T06:41:41.536Z,99.99
2022-11-02T06:42:45.233Z,99.99
2022-11-02T06:43:41.497Z,99.99
2022-11-02T06:44:41.472Z,99.99
2022-11-02T06:45:41.443Z,99.99
2022-11-02T06:46:41.432Z,99.99
2022-11-02T06:47:41.396Z,99.99
2022-11-02T06:48:41.378Z,99.99
2022-11-02T06:49:41.393Z,99.99
2022-11-02T06:50:41.332Z,99.99
2022-11-02T06:51:41.309Z,99.99
2022-11-02T06:52:41.281Z,99.99
2022-11-02T06:53:41.256Z,99.99
2022-11-02T06:54:41.242Z,99.99
2022-11-02T06:55:41.214Z,99.99
2022-11-02T06:56:41.188Z,99.99
2022-11-02T06:57:41.162Z,99.99
2022-11-02T06:58:41.147Z,99.99
2022-11-02T06:59:41.119Z,99.99
2022-11-02T07:00:41.132Z,99.99
2022-11-02T07:01:41.334Z,99.99
2022-11-02T07:02:41.047Z,99.99
2022-11-02T07:03:41.022Z,99.99
2022-11-02T07:04:40.997Z,99.99
2022-11-02T07:05:40.992Z,99.99
2022-11-02T07:06:40.954Z,99.99
2022-11-02T07:07:40.927Z,99.99
2022-11-02T07:08:40.903Z,99.99
2022-11-02T07:09:40.878Z,99.99
2022-11-02T07:10:40.862Z,99.99
2022-11-02T07:11:40.840Z,99.99
2022-11-02T07:12:40.810Z,99.99
2022-11-02T07:13:40.788Z,99.99
2022-11-02T07:14:40.766Z,99.99
2022-11-02T07:15:40.747Z,99.99
2022-11-02T07:16:40.715Z,99.99
2022-11-02T07:17:40.690Z,99.99
2022-11-02T07:18:40.669Z,99.99
2022-11-02T07:19:40.644Z,99.99
2022-11-02T07:20:40.618Z,99.99
2022-11-02T07:21:42.472Z,99.99
2022-11-02T07:22:40.571Z,99.99
2022-11-02T07:23:40.548Z,99.99
2022-11-02T07:24:40.532Z,99.99
2022-11-02T07:25:40.505Z,99.99
2022-11-02T07:26:40.479Z,99.99
2022-11-02T07:27:40.456Z,99.99
2022-11-02T07:28:40.435Z,99.99
2022-11-02T07:29:40.411Z,99.99
2022-11-02T07:30:40.384Z,99.99
2022-11-02T07:31:40.360Z,99.99
2022-11-02T07:32:40.341Z,99.99
2022-11-02T07:33:40.325Z,99.99
2022-11-02T07:34:40.293Z,99.99
2022-11-02T07:35:40.264Z,99.99
2022-11-02T07:36:40.244Z,99.99
2022-11-02T07:37:40.247Z,99.99
2022-11-02T07:38:40.210Z,99.99
2022-11-02T07:39:40.185Z,99.99
2022-11-02T07:40:40.155Z,99.99
2022-11-02T07:41:40.141Z,99.99
2022-11-02T07:42:40.104Z,99.99
2022-11-02T07:43:43.155Z,99.99
2022-11-02T07:44:40.059Z,99.99
2022-11-02T07:45:40.035Z,99.99
2022-11-02T07:46:40.014Z,99.99
2022-11-02T07:47:39.986Z,99.99
2022-11-02T07:48:39.958Z,99.99
2022-11-02T07:49:39.938Z,99.99
2022-11-02T07:50:39.914Z,99.99
2022-11-02T07:51:39.890Z,99.99
2022-11-02T07:52:39.865Z,99.99
2022-11-02T07:53:39.876Z,99.99
2022-11-02T07:54:44.425Z,99.99
2022-11-02T07:55:39.799Z,99.99
2022-11-02T07:56:39.793Z,99.99
2022-11-02T07:57:39.750Z,99.99
2022-11-02T07:58:39.730Z,99.99
2022-11-02T07:59:39.698Z,99.99
2022-11-02T08:00:39.680Z,99.99
2022-11-02T08:01:39.730Z,99.99
2022-11-02T08:02:39.693Z,99.99
2022-11-02T08:03:39.607Z,99.99
2022-11-02T08:04:43.824Z,99.99
2022-11-02T08:05:39.558Z,99.99
2022-11-02T08:06:39.539Z,99.99
2022-11-02T08:07:39.511Z,99.99
2022-11-02T08:08:39.488Z,99.99
2022-11-02T08:09:39.497Z,99.99
2022-11-02T08:10:40.569Z,99.99
2022-11-02T08:11:39.423Z,99.99
2022-11-02T08:12:39.397Z,99.99
2022-11-02T08:13:39.369Z,99.99
2022-11-02T08:14:39.346Z,99.99
2022-11-02T08:15:39.336Z,99.99
2022-11-02T08:16:39.301Z,99.99
2022-11-02T08:17:39.278Z,99.71
2022-11-02T08:18:39.254Z,99.99
2022-11-02T08:19:39.228Z,99.99
2022-11-02T08:20:39.209Z,99.71
2022-11-02T08:21:39.183Z,99.99
2022-11-02T08:22:39.158Z,99.99
2022-11-02T08:23:39.137Z,99.99
2022-11-02T08:24:39.114Z,99.99
2022-11-02T08:25:39.108Z,99.99
2022-11-02T08:26:41.046Z,99.99
2022-11-02T08:27:39.051Z,99.99
2022-11-02T08:28:39.020Z,99.99
2022-11-02T08:29:38.995Z,99.99
2022-11-02T08:30:38.968Z,99.99
2022-11-02T08:31:38.954Z,99.99
2022-11-02T08:32:38.932Z,98.85
2022-11-02T08:33:38.898Z,99.04
2022-11-02T08:34:38.880Z,99.71
2022-11-02T08:35:38.854Z,99.71
2022-11-02T08:36:38.843Z,99.43
2022-11-02T08:37:38.805Z,99.71
2022-11-02T08:38:38.781Z,99.23
2022-11-02T08:39:38.760Z,98.94
2022-11-02T08:40:38.737Z,99.23
2022-11-02T08:41:38.732Z,99.23
2022-11-02T08:42:38.694Z,98.75
2022-11-02T08:43:38.665Z,98.47
2022-11-02T08:44:42.329Z,98.85
2022-11-02T08:46:12.692Z,99.23
2022-11-02T08:46:38.597Z,98.37
2022-11-02T08:47:38.571Z,98.47
2022-11-02T08:48:38.547Z,98.47
2022-11-02T08:49:38.524Z,98.47
2022-11-02T08:50:38.496Z,98.66
2022-11-02T08:51:38.478Z,98.94
2022-11-02T08:52:40.740Z,98.28
2022-11-02T08:53:38.435Z,98.94
2022-11-02T08:54:38.407Z,99.71
2022-11-02T08:55:38.388Z,99.43
2022-11-02T08:56:38.360Z,98.85
2022-11-02T08:57:38.360Z,99.33
2022-11-02T08:58:38.315Z,99.80
2022-11-02T08:59:38.289Z,99.52
2022-11-02T09:00:38.266Z,98.85
2022-11-02T09:01:38.327Z,98.47
2022-11-02T09:02:38.343Z,99.23
2022-11-02T09:03:38.199Z,99.57
2022-11-02T09:04:38.172Z,99.48
2022-11-02T09:05:38.148Z,99.28
2022-11-02T09:06:38.125Z,98.61
2022-11-02T09:07:38.111Z,97.75
2022-11-02T09:08:38.084Z,98.80
2022-11-02T09:09:38.054Z,97.85
2022-11-02T09:10:38.043Z,97.75
2022-11-02T09:11:38.013Z,98.71
2022-11-02T09:12:37.986Z,98.23
2022-11-02T09:13:38.034Z,98.13
2022-11-02T09:14:37.941Z,97.80
2022-11-02T09:15:37.924Z,98.04
2022-11-02T09:16:41.407Z,98.47
2022-11-02T09:17:37.872Z,98.57
2022-11-02T09:18:37.846Z,98.75
2022-11-02T09:19:37.829Z,98.85
2022-11-02T09:20:37.799Z,97.89
2022-11-02T09:21:37.777Z,97.61
2022-11-02T09:22:37.755Z,97.75
2022-11-02T09:23:37.733Z,97.85
2022-11-02T09:24:37.707Z,97.28
2022-11-02T09:25:37.686Z,96.22
2022-11-02T09:26:37.659Z,96.03
2022-11-02T09:27:37.639Z,96.42
2022-11-02T09:28:37.619Z,96.51
2022-11-02T09:29:37.613Z,96.89
2022-11-02T09:30:37.569Z,97.75
2022-11-02T09:31:37.544Z,98.13
2022-11-02T09:32:37.517Z,97.28
2022-11-02T09:33:37.505Z,97.28
2022-11-02T09:34:37.476Z,97.85
2022-11-02T09:35:37.459Z,97.66
2022-11-02T09:36:37.427Z,97.08
2022-11-02T09:37:37.407Z,96.51
2022-11-02T09:38:37.379Z,96.61
2022-11-02T09:39:37.358Z,95.94
2022-11-02T09:40:37.332Z,95.94
2022-11-02T09:41:37.313Z,95.65
2022-11-02T09:42:37.285Z,95.65
2022-11-02T09:43:37.268Z,96.13
2022-11-02T09:44:37.246Z,96.61
2022-11-02T09:45:37.415Z,96.22
2022-11-02T09:46:39.959Z,96.13
2022-11-02T09:48:37.157Z,95.36
2022-11-02T09:49:37.122Z,95.27
2022-11-02T09:50:37.100Z,95.56
2022-11-02T09:51:37.082Z,95.84
2022-11-02T09:52:37.064Z,95.84
2022-11-02T09:53:37.037Z,95.07
2022-11-02T09:54:37.008Z,94.22
2022-11-02T09:55:37.030Z,93.26
2022-11-02T09:56:36.963Z,93.16
2022-11-02T09:57:36.944Z,93.84
2022-11-02T09:58:36.931Z,93.74
2022-11-02T09:59:36.895Z,94.22
2022-11-02T10:00:36.868Z,94.22
2022-11-02T10:01:36.943Z,94.89
2022-11-02T10:02:36.913Z,94.41
2022-11-02T10:03:36.801Z,93.84
2022-11-02T10:04:36.836Z,93.16
2022-11-02T10:05:36.816Z,93.16
2022-11-02T10:06:36.732Z,93.16
2022-11-02T10:07:36.707Z,93.84
2022-11-02T10:08:36.682Z,93.84
2022-11-02T10:09:36.661Z,93.84
2022-11-02T10:10:36.636Z,93.84
2022-11-02T10:12:36.591Z,93.36
2022-11-02T10:13:36.576Z,92.69
2022-11-02T10:14:36.543Z,93.16
2022-11-02T10:15:36.525Z,93.07
2022-11-02T10:16:36.496Z,92.40
2022-11-02T10:17:36.498Z,91.49
2022-11-02T10:18:36.464Z,90.92
2022-11-02T10:19:36.431Z,90.92
2022-11-02T10:20:36.406Z,90.49
2022-11-02T10:21:36.381Z,91.02
2022-11-02T10:22:36.358Z,91.49
2022-11-02T10:23:36.338Z,91.35
2022-11-02T10:24:36.308Z,90.88
2022-11-02T10:25:36.353Z,90.88
2022-11-02T10:26:36.270Z,91.06
2022-11-02T10:27:36.286Z,91.68
2022-11-02T10:28:36.224Z,91.45
2022-11-02T10:29:36.206Z,91.78
2022-11-02T10:30:36.174Z,90.68
2022-11-02T10:31:36.158Z,90.11
2022-11-02T10:32:36.165Z,89.53
2022-11-02T10:33:36.128Z,89.25
2022-11-02T10:34:36.083Z,90.01
2022-11-02T10:35:51.311Z,90.25
2022-11-02T10:36:36.034Z,88.96
2022-11-02T10:37:36.014Z,88.91
2022-11-02T10:38:35.992Z,88.58
2022-11-02T10:39:35.963Z,89.10
2022-11-02T10:40:35.939Z,87.76
2022-11-02T10:41:35.923Z,87.19
2022-11-02T10:42:35.898Z,86.52
2022-11-02T10:43:35.871Z,86.61
2022-11-02T10:44:35.849Z,87.48
2022-11-02T10:45:35.884Z,86.80
2022-11-02T10:46:35.804Z,86.33
2022-11-02T10:47:35.785Z,85.94
2022-11-02T10:48:35.751Z,85.75
2022-11-02T10:49:35.755Z,85.85
2022-11-02T10:50:35.710Z,85.85
2022-11-02T10:51:35.690Z,86.04
2022-11-02T10:52:35.663Z,85.38
2022-11-02T10:53:41.173Z,85.38
2022-11-02T10:54:35.621Z,85.66
2022-11-02T10:55:35.603Z,84.32
2022-11-02T10:56:35.571Z,84.32
2022-11-02T10:57:35.549Z,83.84
2022-11-02T10:58:35.529Z,84.03
2022-11-02T10:59:35.510Z,84.70
2022-11-02T11:00:35.534Z,84.52
2022-11-02T11:01:35.493Z,85.18
2022-11-02T11:02:35.440Z,85.47
2022-11-02T11:03:35.414Z,86.14
2022-11-02T11:04:35.391Z,86.28
2022-11-02T11:05:35.411Z,86.57
2022-11-02T11:06:35.344Z,86.37
2022-11-02T11:07:35.321Z,86.37
2022-11-02T11:08:35.293Z,85.80
2022-11-02T11:09:35.277Z,85.22
2022-11-02T11:10:35.251Z,85.32
2022-11-02T11:11:35.230Z,85.22
2022-11-02T11:12:35.211Z,85.51
2022-11-02T11:15:50.450Z,84.36
2022-11-02T11:16:35.127Z,84.55
2022-11-02T11:20:35.022Z,83.79
2022-11-02T11:21:35.031Z,83.79
2022-11-02T11:22:34.978Z,84.17
2022-11-02T11:23:34.961Z,84.55
2022-11-02T11:24:34.984Z,84.46
2022-11-02T11:25:34.911Z,84.75
2022-11-02T11:26:34.887Z,84.46
2022-11-02T11:27:34.875Z,84.46
2022-11-02T11:28:34.843Z,84.08
2022-11-02T11:29:34.827Z,83.79
2022-11-02T11:31:34.773Z,83.89
2022-11-02T11:32:34.761Z,83.79
2022-11-02T11:33:34.730Z,83.22
2022-11-02T11:34:34.708Z,83.60
2022-11-02T11:35:34.686Z,83.98
2022-11-02T11:36:34.662Z,83.98
2022-11-02T11:37:34.667Z,82.93
2022-11-02T11:38:34.619Z,83.40
2022-11-02T11:39:34.594Z,82.93
2022-11-02T11:40:34.566Z,83.12
2022-11-02T11:41:34.557Z,83.60
2022-11-02T11:42:34.519Z,83.22
2022-11-02T11:43:34.503Z,82.83
2022-11-02T11:44:34.475Z,81.49
2022-11-02T11:45:34.457Z,80.73
2022-11-02T11:46:34.430Z,80.25
2022-11-02T11:47:34.410Z,79.39
2022-11-02T11:48:34.388Z,79.49
2022-11-02T11:50:34.341Z,80.06
2022-11-02T11:51:34.322Z,80.54
2022-11-02T11:52:34.299Z,80.73
2022-11-02T11:53:34.296Z,80.35
2022-11-02T11:54:34.252Z,80.63
2022-11-02T11:55:34.227Z,80.35
2022-11-02T11:56:34.210Z,80.44
2022-11-02T11:57:34.365Z,80.25
2022-11-02T11:58:34.162Z,80.63
2022-11-02T11:59:34.145Z,81.02
2022-11-02T12:00:34.119Z,81.49
2022-11-02T12:01:34.281Z,81.30
2022-11-02T12:02:37.983Z,81.78
2022-11-02T12:03:34.047Z,82.07
2022-11-02T12:04:34.031Z,81.30
2022-11-02T12:05:34.006Z,81.93
2022-11-02T12:06:33.984Z,81.88
2022-11-02T12:07:33.956Z,81.97
2022-11-02T12:08:33.930Z,81.26
2022-11-02T12:09:33.950Z,80.82
2022-11-02T12:10:33.894Z,80.30
2022-11-02T12:11:33.866Z,80.06
2022-11-02T12:12:33.842Z,80.25
2022-11-02T12:13:33.824Z,80.69
2022-11-02T12:14:33.791Z,80.73
2022-11-02T12:15:33.772Z,80.25
2022-11-02T12:16:33.751Z,79.49
2022-11-02T12:17:33.726Z,80.35
2022-11-02T12:18:33.709Z,80.92
2022-11-02T12:19:34.269Z,80.35
2022-11-02T12:20:33.660Z,79.96
2022-11-02T12:21:33.637Z,79.96
2022-11-02T12:22:33.615Z,79.29
2022-11-02T12:23:33.590Z,80.35
2022-11-02T12:24:33.560Z,80.16
2022-11-02T12:25:33.563Z,79.87
2022-11-02T12:26:33.520Z,80.82
2022-11-02T12:27:33.502Z,79.96
2022-11-02T12:28:33.478Z,80.16
2022-11-02T12:29:33.461Z,80.44
2022-11-02T12:30:33.440Z,79.58
2022-11-02T12:31:33.409Z,80.44
2022-11-02T12:32:33.380Z,80.35
2022-11-02T12:33:33.358Z,79.87
2022-11-02T12:34:33.344Z,80.44
2022-11-02T12:35:33.444Z,80.54
2022-11-02T12:36:33.298Z,79.58
2022-11-02T12:37:40.885Z,79.96
2022-11-02T12:38:33.255Z,80.06
2022-11-02T12:39:33.233Z,80.63
2022-11-02T12:40:33.202Z,81.49
2022-11-02T12:41:33.194Z,80.58
2022-11-02T12:42:33.167Z,80.67
2022-11-02T12:43:33.139Z,80.58
2022-11-02T12:44:33.111Z,81.54
2022-11-02T12:45:36.391Z,81.82
2022-11-02T12:46:38.301Z,81.15
2022-11-02T12:47:33.049Z,80.96
2022-11-02T12:48:33.021Z,79.91
2022-11-02T12:49:35.898Z,79.91
2022-11-02T12:50:32.976Z,80.00
2022-11-02T12:51:32.958Z,79.91
2022-11-02T12:52:32.928Z,79.14
2022-11-02T12:53:32.915Z,79.58
2022-11-02T12:54:35.593Z,79.10
2022-11-02T12:55:38.169Z,78.95
2022-11-02T12:56:32.836Z,79.24
2022-11-02T12:57:32.841Z,78.43
2022-11-02T12:58:32.793Z,78.19
2022-11-02T12:59:32.771Z,78.19
2022-11-02T13:00:32.766Z,78.81
2022-11-02T13:01:32.932Z,78.09
2022-11-02T13:02:32.713Z,78.05
2022-11-02T13:03:32.683Z,78.14
2022-11-02T13:04:35.480Z,78.53